sensor_id;sensor_type;location;lat;lon;timestamp;pressure;altitude;pressure_sealevel;temperature;humidity
34925;BME280;21130;51.728;8.748;2023-04-26T00:01:26;100572.06;;;1.48;100.00
34925;BME280;21130;51.728;8.748;2023-04-26T00:03:54;100579.44;;;1.47;100.00
34925;BME280;21130;51.728;8.748;2023-04-26T00:06:23;100576.41;;;1.42;100.00
34925;BME280;21130;51.728;8.748;2023-04-26T00:08:51;100577.63;;;1.40;100.00
34925;BME280;21130;51.728;8.748;2023-04-26T00:11:17;100577.63;;;1.40;100.00
34925;BME280;21130;51.728;8.748;2023-04-26T00:13:44;100577.16;;;1.36;100.00
34925;BME280;21130;51.728;8.748;2023-04-26T00:16:12;100580.59;;;1.30;100.00
34925;BME280;21130;51.728;8.748;2023-04-26T00:18:39;100565.25;;;1.29;100.00
34925;BME280;21130;51.728;8.748;2023-04-26T00:21:05;100577.25;;;1.20;100.00
34925;BME280;21130;51.728;8.748;2023-04-26T00:23:33;100577.81;;;1.15;100.00
34925;BME280;21130;51.728;8.748;2023-04-26T00:26:00;100580.59;;;1.07;100.00
34925;BME280;21130;51.728;8.748;2023-04-26T00:28:27;100576.88;;;1.00;100.00
34925;BME280;21130;51.728;8.748;2023-04-26T00:30:54;100580.81;;;1.05;100.00
34925;BME280;21130;51.728;8.748;2023-04-26T00:33:22;100577.75;;;1.00;100.00
34925;BME280;21130;51.728;8.748;2023-04-26T00:35:48;100588.03;;;0.90;100.00
34925;BME280;21130;51.728;8.748;2023-04-26T00:38:14;100584.34;;;0.83;100.00
34925;BME280;21130;51.728;8.748;2023-04-26T00:40:42;100583.47;;;0.82;100.00
34925;BME280;21130;51.728;8.748;2023-04-26T00:43:10;100586.88;;;0.84;100.00
34925;BME280;21130;51.728;8.748;2023-04-26T00:45:37;100589.09;;;0.89;100.00
34925;BME280;21130;51.728;8.748;2023-04-26T00:48:04;100593.88;;;0.87;100.00
34925;BME280;21130;51.728;8.748;2023-04-26T00:50:31;100597.06;;;0.99;100.00
34925;BME280;21130;51.728;8.748;2023-04-26T00:52:58;100587.50;;;0.95;100.00
34925;BME280;21130;51.728;8.748;2023-04-26T00:55:25;100587.03;;;1.14;100.00
34925;BME280;21130;51.728;8.748;2023-04-26T00:57:53;100581.50;;;1.22;100.00
34925;BME280;21130;51.728;8.748;2023-04-26T01:00:20;100584.94;;;1.24;100.00
34925;BME280;21130;51.728;8.748;2023-04-26T01:02:47;100585.06;;;1.08;100.00
34925;BME280;21130;51.728;8.748;2023-04-26T01:05:13;100567.78;;;1.07;100.00
34925;BME280;21130;51.728;8.748;2023-04-26T01:07:40;100580.84;;;0.97;100.00
34925;BME280;21130;51.728;8.748;2023-04-26T01:10:07;100577.16;;;0.82;100.00
34925;BME280;21130;51.728;8.748;2023-04-26T01:12:34;100582.69;;;0.74;100.00
34925;BME280;21130;51.728;8.748;2023-04-26T01:15:04;100584.78;;;0.63;100.00
34925;BME280;21130;51.728;8.748;2023-04-26T01:17:31;100576.28;;;0.58;100.00
34925;BME280;21130;51.728;8.748;2023-04-26T01:19:57;100585.38;;;0.51;100.00
34925;BME280;21130;51.728;8.748;2023-04-26T01:22:24;100592.56;;;0.43;100.00
34925;BME280;21130;51.728;8.748;2023-04-26T01:24:54;100591.41;;;0.38;100.00
34925;BME280;21130;51.728;8.748;2023-04-26T01:27:21;100587.81;;;0.29;100.00
34925;BME280;21130;51.728;8.748;2023-04-26T01:29:48;100588.53;;;0.23;100.00
34925;BME280;21130;51.728;8.748;2023-04-26T01:32:14;100593.31;;;0.21;100.00
34925;BME280;21130;51.728;8.748;2023-04-26T01:34:41;100592.31;;;0.14;100.00
34925;BME280;21130;51.728;8.748;2023-04-26T01:37:07;100590.75;;;0.19;100.00
34925;BME280;21130;51.728;8.748;2023-04-26T01:39:33;100592.47;;;0.12;100.00
34925;BME280;21130;51.728;8.748;2023-04-26T01:42:02;100593.47;;;0.28;100.00
34925;BME280;21130;51.728;8.748;2023-04-26T01:44:29;100587.88;;;0.21;100.00
34925;BME280;21130;51.728;8.748;2023-04-26T01:46:55;100589.41;;;0.15;100.00
34925;BME280;21130;51.728;8.748;2023-04-26T01:49:23;100588.56;;;0.07;100.00
34925;BME280;21130;51.728;8.748;2023-04-26T01:51:49;100593.91;;;0.00;100.00
34925;BME280;21130;51.728;8.748;2023-04-26T01:54:16;100589.63;;;-0.03;100.00
34925;BME280;21130;51.728;8.748;2023-04-26T01:56:42;100589.81;;;-0.04;100.00
34925;BME280;21130;51.728;8.748;2023-04-26T02:11:31;100589.13;;;-0.06;100.00
34925;BME280;21130;51.728;8.748;2023-04-26T02:13:58;100590.16;;;-0.07;100.00
34925;BME280;21130;51.728;8.748;2023-04-26T02:16:24;100587.59;;;-0.09;100.00
34925;BME280;21130;51.728;8.748;2023-04-26T02:18:51;100589.09;;;0.02;100.00
34925;BME280;21130;51.728;8.748;2023-04-26T02:21:20;100594.22;;;0.05;100.00
34925;BME280;21130;51.728;8.748;2023-04-26T02:23:47;100595.25;;;0.04;100.00
34925;BME280;21130;51.728;8.748;2023-04-26T02:26:13;100599.69;;;-0.03;100.00
34925;BME280;21130;51.728;8.748;2023-04-26T02:28:41;100594.22;;;-0.03;100.00
34925;BME280;21130;51.728;8.748;2023-04-26T02:31:08;100596.81;;;-0.10;100.00
34925;BME280;21130;51.728;8.748;2023-04-26T02:33:35;100603.13;;;-0.09;100.00
34925;BME280;21130;51.728;8.748;2023-04-26T02:36:02;100605.31;;;-0.13;100.00
34925;BME280;21130;51.728;8.748;2023-04-26T02:38:31;100599.72;;;-0.19;100.00
34925;BME280;21130;51.728;8.748;2023-04-26T02:40:57;100610.78;;;-0.21;100.00
34925;BME280;21130;51.728;8.748;2023-04-26T02:43:24;100599.72;;;-0.28;100.00
34925;BME280;21130;51.728;8.748;2023-04-26T02:45:52;100601.78;;;-0.38;100.00
34925;BME280;21130;51.728;8.748;2023-04-26T02:48:19;100597.00;;;-0.36;100.00
34925;BME280;21130;51.728;8.748;2023-04-26T02:50:46;100609.94;;;-0.38;100.00
34925;BME280;21130;51.728;8.748;2023-04-26T02:53:12;100607.91;;;-0.44;100.00
34925;BME280;21130;51.728;8.748;2023-04-26T02:55:40;100609.44;;;-0.41;100.00
34925;BME280;21130;51.728;8.748;2023-04-26T02:58:06;100600.09;;;-0.47;100.00
34925;BME280;21130;51.728;8.748;2023-04-26T03:00:34;100601.28;;;-0.50;100.00
34925;BME280;21130;51.728;8.748;2023-04-26T03:03:04;100605.19;;;-0.52;100.00
34925;BME280;21130;51.728;8.748;2023-04-26T03:05:30;100605.72;;;-0.57;100.00
34925;BME280;21130;51.728;8.748;2023-04-26T03:07:56;100599.56;;;-0.59;100.00
34925;BME280;21130;51.728;8.748;2023-04-26T03:10:23;100598.38;;;-0.64;100.00
34925;BME280;21130;51.728;8.748;2023-04-26T03:12:49;100594.28;;;-0.60;100.00
34925;BME280;21130;51.728;8.748;2023-04-26T03:15:17;100607.25;;;-0.54;100.00
34925;BME280;21130;51.728;8.748;2023-04-26T03:17:43;100607.59;;;-0.57;100.00
34925;BME280;21130;51.728;8.748;2023-04-26T03:20:13;100604.19;;;-0.59;100.00
34925;BME280;21130;51.728;8.748;2023-04-26T03:22:42;100611.66;;;-0.53;100.00
34925;BME280;21130;51.728;8.748;2023-04-26T03:25:09;100606.22;;;-0.53;100.00
34925;BME280;21130;51.728;8.748;2023-04-26T03:27:37;100607.25;;;-0.54;100.00
34925;BME280;21130;51.728;8.748;2023-04-26T03:30:04;100600.59;;;-0.60;100.00
34925;BME280;21130;51.728;8.748;2023-04-26T03:32:31;100592.59;;;-0.61;100.00
34925;BME280;21130;51.728;8.748;2023-04-26T03:34:58;100595.13;;;-0.68;100.00
34925;BME280;21130;51.728;8.748;2023-04-26T03:37:26;100605.19;;;-0.77;100.00
34925;BME280;21130;51.728;8.748;2023-04-26T03:39:52;100600.72;;;-0.86;100.00
34925;BME280;21130;51.728;8.748;2023-04-26T03:42:19;100590.88;;;-0.95;100.00
34925;BME280;21130;51.728;8.748;2023-04-26T03:44:46;100594.09;;;-1.00;100.00
34925;BME280;21130;51.728;8.748;2023-04-26T03:47:13;100595.09;;;-1.09;100.00
34925;BME280;21130;51.728;8.748;2023-04-26T03:49:40;100593.88;;;-1.15;100.00
34925;BME280;21130;51.728;8.748;2023-04-26T03:52:07;100590.28;;;-1.23;100.00
34925;BME280;21130;51.728;8.748;2023-04-26T03:54:34;100592.81;;;-1.30;100.00
34925;BME280;21130;51.728;8.748;2023-04-26T03:57:02;100601.00;;;-1.30;100.00
34925;BME280;21130;51.728;8.748;2023-04-26T03:59:28;100593.47;;;-1.36;100.00
34925;BME280;21130;51.728;8.748;2023-04-26T04:01:54;100591.94;;;-1.39;100.00
34925;BME280;21130;51.728;8.748;2023-04-26T04:04:21;100597.19;;;-1.45;100.00
34925;BME280;21130;51.728;8.748;2023-04-26T04:06:48;100602.25;;;-1.50;100.00
34925;BME280;21130;51.728;8.748;2023-04-26T04:09:14;100602.44;;;-1.52;100.00
34925;BME280;21130;51.728;8.748;2023-04-26T04:11:42;100599.19;;;-1.56;100.00
34925;BME280;21130;51.728;8.748;2023-04-26T04:14:09;100602.56;;;-1.62;100.00
34925;BME280;21130;51.728;8.748;2023-04-26T04:16:38;100605.44;;;-1.63;100.00
34925;BME280;21130;51.728;8.748;2023-04-26T04:19:04;100599.34;;;-1.65;100.00
34925;BME280;21130;51.728;8.748;2023-04-26T04:21:31;100604.78;;;-1.65;100.00
34925;BME280;21130;51.728;8.748;2023-04-26T04:23:57;100610.22;;;-1.65;100.00
34925;BME280;21130;51.728;8.748;2023-04-26T04:26:24;100604.78;;;-1.65;100.00
34925;BME280;21130;51.728;8.748;2023-04-26T04:28:53;100612.06;;;-1.66;100.00
34925;BME280;21130;51.728;8.748;2023-04-26T04:31:20;100614.63;;;-1.64;100.00
34925;BME280;21130;51.728;8.748;2023-04-26T04:33:47;100612.75;;;-1.64;100.00
34925;BME280;21130;51.728;8.748;2023-04-26T04:36:14;100618.19;;;-1.64;100.00
34925;BME280;21130;51.728;8.748;2023-04-26T04:38:41;100614.28;;;-1.61;100.00
34925;BME280;21130;51.728;8.748;2023-04-26T04:41:08;100614.16;;;-1.60;100.00
34925;BME280;21130;51.728;8.748;2023-04-26T04:43:35;100611.78;;;-1.55;100.00
34925;BME280;21130;51.728;8.748;2023-04-26T04:46:02;100613.16;;;-1.50;100.00
34925;BME280;21130;51.728;8.748;2023-04-26T04:48:29;100613.84;;;-1.48;100.00
34925;BME280;21130;51.728;8.748;2023-04-26T04:50:55;100614.19;;;-1.43;100.00
34925;BME280;21130;51.728;8.748;2023-04-26T04:53:22;100619.34;;;-1.40;100.00
34925;BME280;21130;51.728;8.748;2023-04-26T04:55:49;100620.53;;;-1.35;100.00
34925;BME280;21130;51.728;8.748;2023-04-26T04:58:15;100615.59;;;-1.31;100.00
34925;BME280;21130;51.728;8.748;2023-04-26T05:00:42;100615.31;;;-1.20;100.00
34925;BME280;21130;51.728;8.748;2023-04-26T05:03:12;100621.28;;;-1.16;100.00
34925;BME280;21130;51.728;8.748;2023-04-26T05:05:39;100630.50;;;-1.09;100.00
34925;BME280;21130;51.728;8.748;2023-04-26T05:08:05;100629.31;;;-0.98;100.00
34925;BME280;21130;51.728;8.748;2023-04-26T05:10:33;100633.09;;;-0.91;100.00
34925;BME280;21130;51.728;8.748;2023-04-26T05:13:00;100640.41;;;-0.75;100.00
34925;BME280;21130;51.728;8.748;2023-04-26T05:15:26;100636.19;;;-0.70;100.00
34925;BME280;21130;51.728;8.748;2023-04-26T05:17:53;100644.72;;;-0.56;100.00
34925;BME280;21130;51.728;8.748;2023-04-26T05:20:21;100639.59;;;-0.43;100.00
34925;BME280;21130;51.728;8.748;2023-04-26T05:22:48;100646.06;;;-0.28;100.00
34925;BME280;21130;51.728;8.748;2023-04-26T05:25:14;100647.28;;;-0.14;100.00
34925;BME280;21130;51.728;8.748;2023-04-26T05:27:41;100648.28;;;-0.07;100.00
34925;BME280;21130;51.728;8.748;2023-04-26T05:30:10;100639.22;;;0.09;100.00
34925;BME280;21130;51.728;8.748;2023-04-26T05:32:37;100645.88;;;0.23;100.00
34925;BME280;21130;51.728;8.748;2023-04-26T05:35:04;100646.66;;;0.40;100.00
34925;BME280;21130;51.728;8.748;2023-04-26T05:37:32;100649.38;;;0.48;100.00
34925;BME280;21130;51.728;8.748;2023-04-26T05:39:58;100647.63;;;0.63;100.00
34925;BME280;21130;51.728;8.748;2023-04-26T05:42:25;100655.59;;;0.73;100.00
34925;BME280;21130;51.728;8.748;2023-04-26T05:44:56;100658.38;;;0.96;100.00
34925;BME280;21130;51.728;8.748;2023-04-26T05:47:22;100655.91;;;1.10;100.00
34925;BME280;21130;51.728;8.748;2023-04-26T05:49:48;100659.28;;;1.43;100.00
34925;BME280;21130;51.728;8.748;2023-04-26T05:52:15;100661.50;;;1.47;100.00
34925;BME280;21130;51.728;8.748;2023-04-26T05:54:43;100649.09;;;1.60;100.00
34925;BME280;21130;51.728;8.748;2023-04-26T05:57:09;100652.56;;;1.77;100.00
34925;BME280;21130;51.728;8.748;2023-04-26T05:59:36;100648.34;;;1.89;100.00
34925;BME280;21130;51.728;8.748;2023-04-26T06:02:02;100648.56;;;2.02;100.00
34925;BME280;21130;51.728;8.748;2023-04-26T06:04:29;100648.75;;;2.15;100.00
34925;BME280;21130;51.728;8.748;2023-04-26T06:06:56;100653.13;;;2.25;100.00
34925;BME280;21130;51.728;8.748;2023-04-26T06:09:23;100643.13;;;2.32;100.00
34925;BME280;21130;51.728;8.748;2023-04-26T06:11:51;100637.09;;;2.36;100.00
34925;BME280;21130;51.728;8.748;2023-04-26T06:14:18;100640.78;;;2.58;100.00
34925;BME280;21130;51.728;8.748;2023-04-26T06:16:44;100643.22;;;2.68;100.00
34925;BME280;21130;51.728;8.748;2023-04-26T06:19:10;100645.88;;;2.76;100.00
34925;BME280;21130;51.728;8.748;2023-04-26T06:21:37;100645.09;;;2.83;100.00
34925;BME280;21130;51.728;8.748;2023-04-26T06:24:04;100649.44;;;2.92;100.00
34925;BME280;21130;51.728;8.748;2023-04-26T06:26:31;100646.84;;;3.05;100.00
34925;BME280;21130;51.728;8.748;2023-04-26T06:28:59;100649.38;;;3.21;100.00
34925;BME280;21130;51.728;8.748;2023-04-26T06:31:25;100655.41;;;3.32;100.00
34925;BME280;21130;51.728;8.748;2023-04-26T06:33:52;100660.38;;;3.43;100.00
34925;BME280;21130;51.728;8.748;2023-04-26T06:36:18;100664.00;;;3.65;100.00
34925;BME280;21130;51.728;8.748;2023-04-26T06:38:45;100652.44;;;3.70;100.00
34925;BME280;21130;51.728;8.748;2023-04-26T06:41:12;100666.28;;;3.61;100.00
34925;BME280;21130;51.728;8.748;2023-04-26T06:43:38;100656.81;;;3.64;100.00
34925;BME280;21130;51.728;8.748;2023-04-26T06:46:06;100657.66;;;3.64;100.00
34925;BME280;21130;51.728;8.748;2023-04-26T06:48:33;100672.00;;;3.88;100.00
34925;BME280;21130;51.728;8.748;2023-04-26T06:51:04;100668.34;;;4.02;100.00
34925;BME280;21130;51.728;8.748;2023-04-26T06:53:31;100671.50;;;4.27;100.00
34925;BME280;21130;51.728;8.748;2023-04-26T06:55:57;100659.50;;;4.63;100.00
34925;BME280;21130;51.728;8.748;2023-04-26T06:58:24;100662.16;;;4.91;100.00
34925;BME280;21130;51.728;8.748;2023-04-26T07:00:50;100666.41;;;4.94;100.00
34925;BME280;21130;51.728;8.748;2023-04-26T07:03:18;100667.53;;;4.65;100.00
34925;BME280;21130;51.728;8.748;2023-04-26T07:05:45;100668.78;;;4.97;100.00
34925;BME280;21130;51.728;8.748;2023-04-26T07:08:11;100669.38;;;4.92;100.00
34925;BME280;21130;51.728;8.748;2023-04-26T07:10:38;100660.53;;;5.04;100.00
34925;BME280;21130;51.728;8.748;2023-04-26T07:13:04;100671.31;;;4.98;100.00
34925;BME280;21130;51.728;8.748;2023-04-26T07:15:31;100673.91;;;5.07;100.00
34925;BME280;21130;51.728;8.748;2023-04-26T07:17:57;100673.69;;;5.08;100.00
34925;BME280;21130;51.728;8.748;2023-04-26T07:20:25;100674.00;;;4.85;100.00
34925;BME280;21130;51.728;8.748;2023-04-26T07:22:52;100671.16;;;5.07;100.00
34925;BME280;21130;51.728;8.748;2023-04-26T07:25:18;100676.25;;;5.16;100.00
34925;BME280;21130;51.728;8.748;2023-04-26T07:27:45;100669.59;;;5.46;100.00
34925;BME280;21130;51.728;8.748;2023-04-26T07:30:12;100668.78;;;5.52;100.00
34925;BME280;21130;51.728;8.748;2023-04-26T07:32:38;100675.19;;;5.72;100.00
34925;BME280;21130;51.728;8.748;2023-04-26T07:35:06;100673.91;;;5.81;100.00
34925;BME280;21130;51.728;8.748;2023-04-26T07:37:35;100662.94;;;6.01;100.00
34925;BME280;21130;51.728;8.748;2023-04-26T07:40:02;100657.41;;;6.21;100.00
34925;BME280;21130;51.728;8.748;2023-04-26T07:42:32;100665.91;;;6.13;100.00
34925;BME280;21130;51.728;8.748;2023-04-26T07:44:58;100663.78;;;5.95;100.00
34925;BME280;21130;51.728;8.748;2023-04-26T07:47:25;100672.91;;;6.16;100.00
34925;BME280;21130;51.728;8.748;2023-04-26T07:49:52;100662.53;;;6.24;100.00
34925;BME280;21130;51.728;8.748;2023-04-26T07:52:18;100668.66;;;6.60;100.00
34925;BME280;21130;51.728;8.748;2023-04-26T07:54:46;100658.22;;;6.75;100.00
34925;BME280;21130;51.728;8.748;2023-04-26T07:57:14;100651.66;;;7.28;100.00
34925;BME280;21130;51.728;8.748;2023-04-26T07:59:40;100661.44;;;7.17;100.00
34925;BME280;21130;51.728;8.748;2023-04-26T08:02:07;100655.81;;;6.92;100.00
34925;BME280;21130;51.728;8.748;2023-04-26T08:04:33;100662.09;;;6.47;100.00
34925;BME280;21130;51.728;8.748;2023-04-26T08:07:00;100649.81;;;6.10;100.00
34925;BME280;21130;51.728;8.748;2023-04-26T08:09:27;100655.00;;;6.78;100.00
34925;BME280;21130;51.728;8.748;2023-04-26T08:11:55;100651.91;;;6.41;100.00
34925;BME280;21130;51.728;8.748;2023-04-26T08:14:21;100651.94;;;6.35;100.00
34925;BME280;21130;51.728;8.748;2023-04-26T08:16:47;100658.50;;;6.07;100.00
34925;BME280;21130;51.728;8.748;2023-04-26T08:19:14;100661.66;;;6.44;100.00
34925;BME280;21130;51.728;8.748;2023-04-26T08:21:40;100661.22;;;6.54;100.00
34925;BME280;21130;51.728;8.748;2023-04-26T08:24:07;100659.13;;;6.22;100.00
34925;BME280;21130;51.728;8.748;2023-04-26T08:26:33;100651.06;;;6.27;100.00
34925;BME280;21130;51.728;8.748;2023-04-26T08:29:01;100648.25;;;6.67;100.00
34925;BME280;21130;51.728;8.748;2023-04-26T08:31:28;100649.50;;;6.85;100.00
34925;BME280;21130;51.728;8.748;2023-04-26T08:33:54;100657.38;;;6.61;100.00
34925;BME280;21130;51.728;8.748;2023-04-26T08:36:21;100647.22;;;6.55;100.00
34925;BME280;21130;51.728;8.748;2023-04-26T08:38:47;100656.69;;;6.79;100.00
34925;BME280;21130;51.728;8.748;2023-04-26T08:41:14;100651.28;;;7.11;100.00
34925;BME280;21130;51.728;8.748;2023-04-26T08:43:45;100661.75;;;6.89;100.00
34925;BME280;21130;51.728;8.748;2023-04-26T08:46:16;100660.81;;;6.43;100.00
34925;BME280;21130;51.728;8.748;2023-04-26T08:48:45;100663.13;;;6.53;100.00
34925;BME280;21130;51.728;8.748;2023-04-26T08:51:15;100651.69;;;6.43;100.00
34925;BME280;21130;51.728;8.748;2023-04-26T08:53:42;100654.00;;;6.46;100.00
34925;BME280;21130;51.728;8.748;2023-04-26T08:56:09;100656.38;;;6.22;100.00
34925;BME280;21130;51.728;8.748;2023-04-26T08:58:41;100652.75;;;6.09;100.00
34925;BME280;21130;51.728;8.748;2023-04-26T09:01:08;100654.69;;;6.08;100.00
34925;BME280;21130;51.728;8.748;2023-04-26T09:03:36;100657.44;;;5.95;100.00
34925;BME280;21130;51.728;8.748;2023-04-26T09:06:05;100659.28;;;5.81;100.00
34925;BME280;21130;51.728;8.748;2023-04-26T09:08:34;100653.56;;;5.82;100.00
34925;BME280;21130;51.728;8.748;2023-04-26T09:11:02;100651.91;;;6.01;100.00
34925;BME280;21130;51.728;8.748;2023-04-26T09:13:28;100660.00;;;6.10;100.00
34925;BME280;21130;51.728;8.748;2023-04-26T09:15:55;100666.75;;;6.20;100.00
34925;BME280;21130;51.728;8.748;2023-04-26T09:18:22;100655.31;;;6.23;100.00
34925;BME280;21130;51.728;8.748;2023-04-26T09:21:02;100659.13;;;6.29;100.00
34925;BME280;21130;51.728;8.748;2023-04-26T09:23:29;100659.94;;;6.63;100.00
34925;BME280;21130;51.728;8.748;2023-04-26T09:25:55;100662.34;;;7.11;100.00
34925;BME280;21130;51.728;8.748;2023-04-26T09:28:22;100651.69;;;7.91;100.00
34925;BME280;21130;51.728;8.748;2023-04-26T09:30:50;100653.97;;;8.51;100.00
34925;BME280;21130;51.728;8.748;2023-04-26T09:33:17;100653.16;;;8.87;86.32
34925;BME280;21130;51.728;8.748;2023-04-26T09:35:43;100647.16;;;8.72;88.72
34925;BME280;21130;51.728;8.748;2023-04-26T09:38:13;100650.81;;;7.66;90.90
34925;BME280;21130;51.728;8.748;2023-04-26T09:40:41;100659.56;;;7.18;96.37
34925;BME280;21130;51.728;8.748;2023-04-26T09:43:09;100655.63;;;6.87;100.00
34925;BME280;21130;51.728;8.748;2023-04-26T09:45:44;100668.22;;;6.56;100.00
34925;BME280;21130;51.728;8.748;2023-04-26T09:48:12;100668.88;;;6.38;100.00
34925;BME280;21130;51.728;8.748;2023-04-26T09:50:41;100660.38;;;6.46;100.00
34925;BME280;21130;51.728;8.748;2023-04-26T09:53:07;100659.94;;;6.56;100.00
34925;BME280;21130;51.728;8.748;2023-04-26T09:55:36;100653.53;;;6.76;100.00
34925;BME280;21130;51.728;8.748;2023-04-26T09:58:09;100660.22;;;7.06;100.00
34925;BME280;21130;51.728;8.748;2023-04-26T10:00:37;100652.56;;;7.53;100.00
34925;BME280;21130;51.728;8.748;2023-04-26T10:03:07;100653.31;;;7.67;96.83
34925;BME280;21130;51.728;8.748;2023-04-26T10:05:35;100647.66;;;7.87;87.08
34925;BME280;21130;51.728;8.748;2023-04-26T10:08:02;100649.19;;;7.83;86.67
34925;BME280;21130;51.728;8.748;2023-04-26T10:10:29;100642.69;;;7.71;82.16
34925;BME280;21130;51.728;8.748;2023-04-26T10:12:57;100642.66;;;7.39;89.36
34925;BME280;21130;51.728;8.748;2023-04-26T10:15:25;100652.59;;;7.02;89.13
34925;BME280;21130;51.728;8.748;2023-04-26T10:17:51;100650.53;;;6.90;90.22
34925;BME280;21130;51.728;8.748;2023-04-26T10:20:19;100653.09;;;6.79;95.52
34925;BME280;21130;51.728;8.748;2023-04-26T10:22:51;100648.66;;;6.64;100.00
34925;BME280;21130;51.728;8.748;2023-04-26T10:25:18;100643.38;;;6.63;100.00
34925;BME280;21130;51.728;8.748;2023-04-26T10:27:49;100655.47;;;6.75;100.00
34925;BME280;21130;51.728;8.748;2023-04-26T10:30:19;100642.31;;;6.77;100.00
34925;BME280;21130;51.728;8.748;2023-04-26T10:33:19;100647.38;;;6.67;99.61
34925;BME280;21130;51.728;8.748;2023-04-26T10:36:10;100637.63;;;6.64;100.00
34925;BME280;21130;51.728;8.748;2023-04-26T10:38:39;100648.25;;;6.67;98.73
34925;BME280;21130;51.728;8.748;2023-04-26T10:41:31;100645.09;;;6.57;100.00
34925;BME280;21130;51.728;8.748;2023-04-26T10:44:00;100648.69;;;6.44;100.00
34925;BME280;21130;51.728;8.748;2023-04-26T10:46:50;100647.91;;;6.37;100.00
34925;BME280;21130;51.728;8.748;2023-04-26T10:49:18;100645.53;;;6.34;100.00
34925;BME280;21130;51.728;8.748;2023-04-26T10:52:09;100649.13;;;6.41;100.00
34925;BME280;21130;51.728;8.748;2023-04-26T10:54:47;100638.53;;;6.32;100.00
34925;BME280;21130;51.728;8.748;2023-04-26T10:57:14;100647.88;;;6.57;100.00
34925;BME280;21130;51.728;8.748;2023-04-26T11:00:15;100640.00;;;6.67;100.00
34925;BME280;21130;51.728;8.748;2023-04-26T11:02:52;100634.03;;;6.64;100.00
34925;BME280;21130;51.728;8.748;2023-04-26T11:05:40;100634.47;;;6.67;100.00
34925;BME280;21130;51.728;8.748;2023-04-26T11:08:14;100637.44;;;6.59;100.00
34925;BME280;21130;51.728;8.748;2023-04-26T11:10:41;100637.25;;;6.54;100.00
34925;BME280;21130;51.728;8.748;2023-04-26T11:13:08;100635.31;;;6.61;100.00
34925;BME280;21130;51.728;8.748;2023-04-26T11:15:34;100634.03;;;6.64;100.00
34925;BME280;21130;51.728;8.748;2023-04-26T11:18:02;100640.81;;;6.68;100.00
34925;BME280;21130;51.728;8.748;2023-04-26T11:20:30;100636.16;;;6.68;100.00
34925;BME280;21130;51.728;8.748;2023-04-26T11:22:57;100635.00;;;6.96;100.00
34925;BME280;21130;51.728;8.748;2023-04-26T11:25:24;100636.41;;;7.19;100.00
34925;BME280;21130;51.728;8.748;2023-04-26T11:27:58;100641.34;;;7.48;99.69
34925;BME280;21130;51.728;8.748;2023-04-26T11:30:24;100641.59;;;7.72;93.87
34925;BME280;21130;51.728;8.748;2023-04-26T11:32:52;100640.09;;;7.76;95.62
34925;BME280;21130;51.728;8.748;2023-04-26T11:35:21;100633.19;;;7.92;90.40
34925;BME280;21130;51.728;8.748;2023-04-26T11:37:49;100639.50;;;7.99;88.46
34925;BME280;21130;51.728;8.748;2023-04-26T11:40:16;100640.31;;;8.06;88.25
34925;BME280;21130;51.728;8.748;2023-04-26T11:42:43;100647.41;;;7.95;88.19
34925;BME280;21130;51.728;8.748;2023-04-26T11:45:10;100644.66;;;8.20;86.58
34925;BME280;21130;51.728;8.748;2023-04-26T11:47:37;100641.44;;;8.23;82.59
34925;BME280;21130;51.728;8.748;2023-04-26T11:50:06;100642.72;;;8.21;80.19
34925;BME280;21130;51.728;8.748;2023-04-26T11:52:34;100638.59;;;7.80;83.52
34925;BME280;21130;51.728;8.748;2023-04-26T11:55:02;100645.94;;;7.61;92.58
34925;BME280;21130;51.728;8.748;2023-04-26T11:57:31;100643.81;;;7.63;88.18
34925;BME280;21130;51.728;8.748;2023-04-26T12:00:09;100648.56;;;7.81;86.03
34925;BME280;21130;51.728;8.748;2023-04-26T12:02:39;100641.44;;;7.98;88.50
34925;BME280;21130;51.728;8.748;2023-04-26T12:05:06;100646.22;;;8.10;83.28
34925;BME280;21130;51.728;8.748;2023-04-26T12:07:36;100644.88;;;8.19;87.59
34925;BME280;21130;51.728;8.748;2023-04-26T12:10:16;100651.88;;;8.21;79.41
34925;BME280;21130;51.728;8.748;2023-04-26T12:12:43;100660.78;;;8.23;78.40
34925;BME280;21130;51.728;8.748;2023-04-26T12:15:11;100649.53;;;8.50;70.98
34925;BME280;21130;51.728;8.748;2023-04-26T12:17:38;100654.91;;;8.63;69.55
34925;BME280;21130;51.728;8.748;2023-04-26T12:20:08;100652.72;;;8.47;64.91
34925;BME280;21130;51.728;8.748;2023-04-26T12:22:36;100639.94;;;8.71;64.29
34925;BME280;21130;51.728;8.748;2023-04-26T12:25:04;100647.41;;;8.89;64.52
34925;BME280;21130;51.728;8.748;2023-04-26T12:27:31;100648.94;;;9.03;64.42
34925;BME280;21130;51.728;8.748;2023-04-26T12:29:57;100645.63;;;8.95;61.81
34925;BME280;21130;51.728;8.748;2023-04-26T12:32:24;100637.50;;;9.30;59.17
34925;BME280;21130;51.728;8.748;2023-04-26T12:34:51;100639.50;;;9.41;58.55
34925;BME280;21130;51.728;8.748;2023-04-26T12:37:37;100631.09;;;10.44;55.95
34925;BME280;21130;51.728;8.748;2023-04-26T12:40:05;100631.19;;;10.60;55.00
34925;BME280;21130;51.728;8.748;2023-04-26T12:42:33;100630.47;;;10.89;53.64
34925;BME280;21130;51.728;8.748;2023-04-26T12:45:00;100619.22;;;11.64;52.22
34925;BME280;21130;51.728;8.748;2023-04-26T12:47:26;100626.47;;;11.94;51.55
34925;BME280;21130;51.728;8.748;2023-04-26T12:49:53;100635.75;;;11.42;53.48
34925;BME280;21130;51.728;8.748;2023-04-26T12:52:19;100634.22;;;10.82;51.25
34925;BME280;21130;51.728;8.748;2023-04-26T12:54:47;100632.66;;;10.40;54.31
34925;BME280;21130;51.728;8.748;2023-04-26T12:57:14;100638.19;;;10.28;53.22
34925;BME280;21130;51.728;8.748;2023-04-26T12:59:40;100632.84;;;10.14;55.29
34925;BME280;21130;51.728;8.748;2023-04-26T13:02:07;100630.56;;;10.11;56.92
34925;BME280;21130;51.728;8.748;2023-04-26T13:04:34;100631.59;;;9.87;57.02